sensor_id;sensor_type;location;lat;lon;timestamp;noise_LAeq;noise_LA_min;noise_LA_max;noise_LA01;noise_LA95
48967;Laerm;46511;53.148;8.204;2024-03-08T00:00:43;43.73;41.68;47.61;;
48967;Laerm;46511;53.148;8.204;2024-03-08T00:03:15;49.41;41.96;64.34;;
48967;Laerm;46511;53.148;8.204;2024-03-08T00:05:46;49.64;41.61;63.67;;
48967;Laerm;46511;53.148;8.204;2024-03-08T00:08:17;43.83;41.22;56.27;;
48967;Laerm;46511;53.148;8.204;2024-03-08T00:10:49;44.45;41.61;56.12;;
48967;Laerm;46511;53.148;8.204;2024-03-08T00:13:20;44.61;42.53;47.57;;
48967;Laerm;46511;53.148;8.204;2024-03-08T00:15:52;48.26;41.82;57.50;;
48967;Laerm;46511;53.148;8.204;2024-03-08T00:18:23;47.14;42.59;55.76;;
48967;Laerm;46511;53.148;8.204;2024-03-08T00:20:54;55.84;42.03;66.34;;
48967;Laerm;46511;53.148;8.204;2024-03-08T00:23:26;48.36;41.75;67.82;;
48967;Laerm;46511;53.148;8.204;2024-03-08T00:25:57;68.72;41.89;93.99;;
48967;Laerm;46511;53.148;8.204;2024-03-08T00:28:28;43.76;41.22;50.09;;
48967;Laerm;46511;53.148;8.204;2024-03-08T00:31:00;44.15;41.30;50.77;;
48967;Laerm;46511;53.148;8.204;2024-03-08T00:33:31;44.25;41.46;58.25;;
48967;Laerm;46511;53.148;8.204;2024-03-08T00:35:58;43.66;40.80;45.80;;
48967;Laerm;46511;53.148;8.204;2024-03-08T00:38:29;43.54;40.62;54.02;;
48967;Laerm;46511;53.148;8.204;2024-03-08T00:41:00;44.41;40.98;68.70;;
48967;Laerm;46511;53.148;8.204;2024-03-08T00:43:33;44.13;40.53;58.52;;
48967;Laerm;46511;53.148;8.204;2024-03-08T00:46:04;48.14;40.80;61.78;;
48967;Laerm;46511;53.148;8.204;2024-03-08T00:48:35;43.58;40.89;45.45;;
48967;Laerm;46511;53.148;8.204;2024-03-08T00:51:07;51.16;41.06;65.76;;
48967;Laerm;46511;53.148;8.204;2024-03-08T00:53:39;44.33;41.38;49.10;;
48967;Laerm;46511;53.148;8.204;2024-03-08T00:56:11;44.32;41.96;50.25;;
48967;Laerm;46511;53.148;8.204;2024-03-08T00:58:42;52.68;41.53;65.53;;
48967;Laerm;46511;53.148;8.204;2024-03-08T01:01:13;43.67;40.89;48.67;;
48967;Laerm;46511;53.148;8.204;2024-03-08T01:03:47;43.92;41.38;46.38;;
48967;Laerm;46511;53.148;8.204;2024-03-08T01:06:19;43.86;41.30;47.20;;
48967;Laerm;46511;53.148;8.204;2024-03-08T01:08:51;43.56;41.38;47.90;;
48967;Laerm;46511;53.148;8.204;2024-03-08T01:11:24;48.04;41.38;60.05;;
48967;Laerm;46511;53.148;8.204;2024-03-08T01:13:55;46.16;41.14;62.31;;
48967;Laerm;46511;53.148;8.204;2024-03-08T01:16:26;47.25;40.43;63.32;;
48967;Laerm;46511;53.148;8.204;2024-03-08T01:18:57;43.70;39.78;46.35;;
48967;Laerm;46511;53.148;8.204;2024-03-08T01:21:29;43.92;40.71;47.86;;
48967;Laerm;46511;53.148;8.204;2024-03-08T01:24:00;43.50;40.71;46.61;;
48967;Laerm;46511;53.148;8.204;2024-03-08T01:26:32;43.21;40.43;45.51;;
48967;Laerm;46511;53.148;8.204;2024-03-08T01:29:05;43.33;40.53;47.44;;
48967;Laerm;46511;53.148;8.204;2024-03-08T01:31:36;43.27;40.53;46.05;;
48967;Laerm;46511;53.148;8.204;2024-03-08T01:34:08;50.32;40.23;64.67;;
48967;Laerm;46511;53.148;8.204;2024-03-08T01:36:40;43.50;40.62;46.62;;
48967;Laerm;46511;53.148;8.204;2024-03-08T01:39:11;55.28;40.53;72.09;;
48967;Laerm;46511;53.148;8.204;2024-03-08T01:41:42;50.07;41.53;66.35;;
48967;Laerm;46511;53.148;8.204;2024-03-08T01:44:14;43.87;40.62;48.39;;
48967;Laerm;46511;53.148;8.204;2024-03-08T01:46:49;43.83;41.22;49.29;;
48967;Laerm;46511;53.148;8.204;2024-03-08T01:49:22;43.28;40.71;45.07;;
48967;Laerm;46511;53.148;8.204;2024-03-08T01:51:55;43.35;40.89;44.97;;
48967;Laerm;46511;53.148;8.204;2024-03-08T01:54:27;43.35;40.71;45.57;;
48967;Laerm;46511;53.148;8.204;2024-03-08T01:56:59;43.27;40.80;44.98;;
48967;Laerm;46511;53.148;8.204;2024-03-08T01:59:30;43.32;40.53;48.52;;
48967;Laerm;46511;53.148;8.204;2024-03-08T02:02:04;43.44;41.14;45.45;;
48967;Laerm;46511;53.148;8.204;2024-03-08T02:04:37;43.49;40.62;50.49;;
48967;Laerm;46511;53.148;8.204;2024-03-08T02:07:09;43.49;40.71;46.30;;
48967;Laerm;46511;53.148;8.204;2024-03-08T02:09:41;43.36;40.36;48.64;;
48967;Laerm;46511;53.148;8.204;2024-03-08T02:12:12;43.37;40.43;46.57;;
48967;Laerm;46511;53.148;8.204;2024-03-08T02:14:44;43.46;40.79;46.59;;
48967;Laerm;46511;53.148;8.204;2024-03-08T02:17:16;43.83;41.06;62.30;;
48967;Laerm;46511;53.148;8.204;2024-03-08T02:19:47;48.68;40.53;61.26;;
48967;Laerm;46511;53.148;8.204;2024-03-08T02:22:19;43.82;41.14;46.55;;
48967;Laerm;46511;53.148;8.204;2024-03-08T02:24:51;43.80;41.14;49.50;;
48967;Laerm;46511;53.148;8.204;2024-03-08T02:27:25;43.74;41.06;51.12;;
48967;Laerm;46511;53.148;8.204;2024-03-08T02:29:57;43.45;40.89;46.10;;
48967;Laerm;46511;53.148;8.204;2024-03-08T02:32:28;43.72;40.71;50.48;;
48967;Laerm;46511;53.148;8.204;2024-03-08T02:35:01;43.49;41.06;45.75;;
48967;Laerm;46511;53.148;8.204;2024-03-08T02:37:32;43.48;40.53;45.33;;
48967;Laerm;46511;53.148;8.204;2024-03-08T02:40:04;43.56;41.22;46.73;;
48967;Laerm;46511;53.148;8.204;2024-03-08T02:42:36;43.55;40.89;45.48;;
48967;Laerm;46511;53.148;8.204;2024-03-08T02:45:08;43.45;40.23;46.71;;
48967;Laerm;46511;53.148;8.204;2024-03-08T02:47:41;43.40;40.89;45.99;;
48967;Laerm;46511;53.148;8.204;2024-03-08T02:50:12;43.43;40.71;47.52;;
48967;Laerm;46511;53.148;8.204;2024-03-08T02:52:47;43.65;40.80;49.14;;
48967;Laerm;46511;53.148;8.204;2024-03-08T02:55:18;57.71;42.42;70.06;;
48967;Laerm;46511;53.148;8.204;2024-03-08T02:57:51;50.37;41.06;64.52;;
48967;Laerm;46511;53.148;8.204;2024-03-08T03:00:23;48.67;41.30;62.20;;
48967;Laerm;46511;53.148;8.204;2024-03-08T03:02:55;43.83;41.14;45.99;;
48967;Laerm;46511;53.148;8.204;2024-03-08T03:05:27;44.17;41.30;51.91;;
48967;Laerm;46511;53.148;8.204;2024-03-08T03:07:59;44.29;40.98;55.40;;
48967;Laerm;46511;53.148;8.204;2024-03-08T03:10:30;43.79;41.22;46.07;;
48967;Laerm;46511;53.148;8.204;2024-03-08T03:13:02;43.78;41.38;47.79;;
48967;Laerm;46511;53.148;8.204;2024-03-08T03:15:35;43.59;41.06;50.91;;
48967;Laerm;46511;53.148;8.204;2024-03-08T03:18:07;43.86;40.89;47.46;;
48967;Laerm;46511;53.148;8.204;2024-03-08T03:20:39;44.19;41.89;50.92;;
48967;Laerm;46511;53.148;8.204;2024-03-08T03:23:13;44.00;41.38;46.73;;
48967;Laerm;46511;53.148;8.204;2024-03-08T03:25:46;47.30;42.71;59.64;;
48967;Laerm;46511;53.148;8.204;2024-03-08T03:28:17;44.04;41.96;48.70;;
48967;Laerm;46511;53.148;8.204;2024-03-08T03:30:45;44.08;41.75;47.50;;
48967;Laerm;46511;53.148;8.204;2024-03-08T03:33:17;50.25;41.61;64.66;;
48967;Laerm;46511;53.148;8.204;2024-03-08T03:35:48;48.48;41.53;62.31;;
48967;Laerm;46511;53.148;8.204;2024-03-08T03:38:15;43.84;41.46;45.94;;
48967;Laerm;46511;53.148;8.204;2024-03-08T03:40:46;44.19;41.68;47.36;;
48967;Laerm;46511;53.148;8.204;2024-03-08T03:43:19;44.70;42.53;49.10;;
48967;Laerm;46511;53.148;8.204;2024-03-08T03:45:51;43.93;41.53;49.51;;
48967;Laerm;46511;53.148;8.204;2024-03-08T03:48:22;44.35;41.14;63.27;;
48967;Laerm;46511;53.148;8.204;2024-03-08T03:50:53;45.94;42.42;56.49;;
48967;Laerm;46511;53.148;8.204;2024-03-08T03:53:24;43.95;41.53;47.06;;
48967;Laerm;46511;53.148;8.204;2024-03-08T03:55:57;44.09;41.68;49.15;;
48967;Laerm;46511;53.148;8.204;2024-03-08T03:58:29;47.41;41.46;60.38;;
48967;Laerm;46511;53.148;8.204;2024-03-08T04:01:00;46.78;42.88;56.08;;
48967;Laerm;46511;53.148;8.204;2024-03-08T04:03:31;45.15;42.65;58.49;;
48967;Laerm;46511;53.148;8.204;2024-03-08T04:06:05;44.75;42.03;50.19;;
48967;Laerm;46511;53.148;8.204;2024-03-08T04:08:37;46.43;42.53;71.28;;
48967;Laerm;46511;53.148;8.204;2024-03-08T04:11:08;45.94;42.88;61.67;;
48967;Laerm;46511;53.148;8.204;2024-03-08T04:13:39;46.40;43.19;71.08;;
48967;Laerm;46511;53.148;8.204;2024-03-08T04:16:11;45.51;42.88;51.18;;
48967;Laerm;46511;53.148;8.204;2024-03-08T04:18:42;44.99;42.71;50.48;;
48967;Laerm;46511;53.148;8.204;2024-03-08T04:21:14;49.63;43.77;70.07;;
48967;Laerm;46511;53.148;8.204;2024-03-08T04:23:45;52.14;43.58;70.51;;
48967;Laerm;46511;53.148;8.204;2024-03-08T04:26:17;45.81;43.44;51.77;;
48967;Laerm;46511;53.148;8.204;2024-03-08T04:28:49;55.00;43.09;69.12;;
48967;Laerm;46511;53.148;8.204;2024-03-08T04:31:20;55.69;43.81;70.51;;
48967;Laerm;46511;53.148;8.204;2024-03-08T04:33:53;45.10;43.29;48.36;;
48967;Laerm;46511;53.148;8.204;2024-03-08T04:36:24;51.37;43.24;66.80;;
48967;Laerm;46511;53.148;8.204;2024-03-08T04:38:56;51.41;43.94;62.64;;
48967;Laerm;46511;53.148;8.204;2024-03-08T04:41:27;46.80;43.77;58.11;;
48967;Laerm;46511;53.148;8.204;2024-03-08T04:43:58;50.65;43.68;63.47;;
48967;Laerm;46511;53.148;8.204;2024-03-08T04:46:30;50.78;43.63;64.86;;
48967;Laerm;46511;53.148;8.204;2024-03-08T04:49:01;46.17;43.29;59.68;;
48967;Laerm;46511;53.148;8.204;2024-03-08T04:51:33;49.51;43.49;60.81;;
48967;Laerm;46511;53.148;8.204;2024-03-08T04:54:05;50.76;43.54;64.87;;
48967;Laerm;46511;53.148;8.204;2024-03-08T04:56:36;47.35;43.54;60.11;;
48967;Laerm;46511;53.148;8.204;2024-03-08T04:59:07;47.41;43.63;59.30;;
48967;Laerm;46511;53.148;8.204;2024-03-08T05:01:39;47.68;42.88;59.95;;
48967;Laerm;46511;53.148;8.204;2024-03-08T05:04:10;47.63;43.49;57.79;;
48967;Laerm;46511;53.148;8.204;2024-03-08T05:06:42;46.86;43.63;57.78;;
48967;Laerm;46511;53.148;8.204;2024-03-08T05:09:13;49.38;43.77;61.06;;
48967;Laerm;46511;53.148;8.204;2024-03-08T05:11:45;51.42;44.15;62.07;;
48967;Laerm;46511;53.148;8.204;2024-03-08T05:14:13;50.47;43.86;63.42;;
48967;Laerm;46511;53.148;8.204;2024-03-08T05:16:48;47.51;44.31;64.36;;
48967;Laerm;46511;53.148;8.204;2024-03-08T05:19:20;47.31;44.51;58.28;;
48967;Laerm;46511;53.148;8.204;2024-03-08T05:21:51;51.84;44.35;62.38;;
48967;Laerm;46511;53.148;8.204;2024-03-08T05:24:18;52.15;44.23;64.89;;
48967;Laerm;46511;53.148;8.204;2024-03-08T05:26:50;50.46;44.47;64.97;;
48967;Laerm;46511;53.148;8.204;2024-03-08T05:29:21;54.61;44.07;68.56;;
48967;Laerm;46511;53.148;8.204;2024-03-08T05:31:54;53.45;44.80;64.67;;
48967;Laerm;46511;53.148;8.204;2024-03-08T05:34:21;52.41;44.87;62.72;;
48967;Laerm;46511;53.148;8.204;2024-03-08T05:36:53;52.00;45.20;64.28;;
48967;Laerm;46511;53.148;8.204;2024-03-08T05:39:25;49.08;45.63;59.13;;
48967;Laerm;46511;53.148;8.204;2024-03-08T05:41:57;54.77;44.73;68.42;;
48967;Laerm;46511;53.148;8.204;2024-03-08T05:44:23;51.33;45.83;62.68;;
48967;Laerm;46511;53.148;8.204;2024-03-08T05:46:54;55.53;46.15;66.94;;
48967;Laerm;46511;53.148;8.204;2024-03-08T05:49:27;54.08;46.02;67.06;;
48967;Laerm;46511;53.148;8.204;2024-03-08T05:51:58;55.07;45.66;65.24;;
48967;Laerm;46511;53.148;8.204;2024-03-08T05:54:31;55.56;46.10;66.61;;
48967;Laerm;46511;53.148;8.204;2024-03-08T05:56:59;54.52;45.45;65.71;;
48967;Laerm;46511;53.148;8.204;2024-03-08T05:59:30;52.51;45.97;70.12;;
48967;Laerm;46511;53.148;8.204;2024-03-08T06:02:01;53.51;45.57;63.38;;
48967;Laerm;46511;53.148;8.204;2024-03-08T06:04:33;54.95;45.94;68.20;;
48967;Laerm;46511;53.148;8.204;2024-03-08T06:07:05;54.94;44.97;64.25;;
48967;Laerm;46511;53.148;8.204;2024-03-08T06:09:37;55.86;47.48;63.62;;
48967;Laerm;46511;53.148;8.204;2024-03-08T06:12:08;54.50;46.35;64.57;;
48967;Laerm;46511;53.148;8.204;2024-03-08T06:14:37;56.08;46.50;67.18;;
48967;Laerm;46511;53.148;8.204;2024-03-08T06:17:11;54.43;46.15;66.58;;
48967;Laerm;46511;53.148;8.204;2024-03-08T06:19:42;56.52;47.63;68.85;;
48967;Laerm;46511;53.148;8.204;2024-03-08T06:22:13;56.87;47.67;69.28;;
48967;Laerm;46511;53.148;8.204;2024-03-08T06:24:45;56.46;46.15;63.78;;
48967;Laerm;46511;53.148;8.204;2024-03-08T06:27:16;56.24;46.15;66.23;;
48967;Laerm;46511;53.148;8.204;2024-03-08T06:29:48;58.09;49.29;68.08;;
48967;Laerm;46511;53.148;8.204;2024-03-08T06:32:20;56.45;46.50;65.51;;
48967;Laerm;46511;53.148;8.204;2024-03-08T06:34:46;57.61;46.91;66.40;;
48967;Laerm;46511;53.148;8.204;2024-03-08T06:37:18;56.23;46.89;71.75;;
48967;Laerm;46511;53.148;8.204;2024-03-08T06:39:52;56.10;47.44;73.94;;
48967;Laerm;46511;53.148;8.204;2024-03-08T06:42:29;57.19;47.14;72.08;;
48967;Laerm;46511;53.148;8.204;2024-03-08T06:44:56;59.94;47.32;70.08;;
48967;Laerm;46511;53.148;8.204;2024-03-08T06:47:36;58.87;47.22;69.75;;
48967;Laerm;46511;53.148;8.204;2024-03-08T06:50:08;57.70;47.54;67.46;;
48967;Laerm;46511;53.148;8.204;2024-03-08T06:52:39;60.42;46.38;74.11;;
48967;Laerm;46511;53.148;8.204;2024-03-08T06:55:11;57.01;47.12;66.48;;
48967;Laerm;46511;53.148;8.204;2024-03-08T06:57:43;54.84;45.77;68.23;;
48967;Laerm;46511;53.148;8.204;2024-03-08T07:00:14;55.71;47.23;64.54;;
48967;Laerm;46511;53.148;8.204;2024-03-08T07:02:49;56.47;46.97;65.68;;
48967;Laerm;46511;53.148;8.204;2024-03-08T07:05:21;55.31;46.18;67.28;;
48967;Laerm;46511;53.148;8.204;2024-03-08T07:07:52;55.20;46.10;64.91;;
48967;Laerm;46511;53.148;8.204;2024-03-08T07:10:25;56.57;46.69;68.54;;
48967;Laerm;46511;53.148;8.204;2024-03-08T07:12:57;58.72;45.99;68.48;;
48967;Laerm;46511;53.148;8.204;2024-03-08T07:15:28;55.04;46.15;66.84;;
48967;Laerm;46511;53.148;8.204;2024-03-08T07:18:00;63.32;46.84;78.57;;
48967;Laerm;46511;53.148;8.204;2024-03-08T07:20:26;56.20;46.76;64.88;;
48967;Laerm;46511;53.148;8.204;2024-03-08T07:22:57;57.77;46.33;73.49;;
48967;Laerm;46511;53.148;8.204;2024-03-08T07:25:29;56.51;46.07;67.08;;
48967;Laerm;46511;53.148;8.204;2024-03-08T07:28:00;61.25;47.06;77.40;;
48967;Laerm;46511;53.148;8.204;2024-03-08T07:30:32;57.90;45.01;67.04;;
48967;Laerm;46511;53.148;8.204;2024-03-08T07:33:15;55.60;45.75;66.97;;
48967;Laerm;46511;53.148;8.204;2024-03-08T07:35:46;59.16;46.45;74.29;;
48967;Laerm;46511;53.148;8.204;2024-03-08T07:38:18;54.88;45.54;66.31;;
48967;Laerm;46511;53.148;8.204;2024-03-08T07:40:52;56.65;46.30;74.58;;
48967;Laerm;46511;53.148;8.204;2024-03-08T07:43:18;56.56;44.69;70.88;;
48967;Laerm;46511;53.148;8.204;2024-03-08T07:45:50;59.28;45.42;73.05;;
48967;Laerm;46511;53.148;8.204;2024-03-08T07:48:24;54.47;45.23;64.97;;
48967;Laerm;46511;53.148;8.204;2024-03-08T07:50:55;55.76;45.04;68.33;;
48967;Laerm;46511;53.148;8.204;2024-03-08T07:53:26;55.70;45.63;65.89;;
48967;Laerm;46511;53.148;8.204;2024-03-08T07:55:57;55.31;45.48;65.60;;
48967;Laerm;46511;53.148;8.204;2024-03-08T07:58:29;57.12;44.76;68.77;;
48967;Laerm;46511;53.148;8.204;2024-03-08T08:01:00;56.95;44.39;68.09;;
48967;Laerm;46511;53.148;8.204;2024-03-08T08:03:32;56.52;44.83;65.85;;
48967;Laerm;46511;53.148;8.204;2024-03-08T08:06:03;53.59;44.43;66.27;;
48967;Laerm;46511;53.148;8.204;2024-03-08T08:08:30;49.97;44.19;64.00;;
48967;Laerm;46511;53.148;8.204;2024-03-08T08:11:03;55.93;43.63;66.81;;
48967;Laerm;46511;53.148;8.204;2024-03-08T08:13:35;56.83;44.15;67.51;;
48967;Laerm;46511;53.148;8.204;2024-03-08T08:16:07;56.28;45.14;64.84;;
48967;Laerm;46511;53.148;8.204;2024-03-08T08:18:39;55.10;44.31;67.13;;
48967;Laerm;46511;53.148;8.204;2024-03-08T08:21:10;65.84;44.73;85.77;;
48967;Laerm;46511;53.148;8.204;2024-03-08T08:23:37;80.21;45.07;100.05;;
48967;Laerm;46511;53.148;8.204;2024-03-08T08:26:10;55.66;44.76;65.71;;
48967;Laerm;46511;53.148;8.204;2024-03-08T08:28:42;50.86;44.11;68.59;;
48967;Laerm;46511;53.148;8.204;2024-03-08T08:31:14;51.42;44.15;64.83;;
48967;Laerm;46511;53.148;8.204;2024-03-08T08:33:45;56.75;45.36;66.94;;
48967;Laerm;46511;53.148;8.204;2024-03-08T08:36:19;57.64;44.51;77.17;;
48967;Laerm;46511;53.148;8.204;2024-03-08T08:38:45;57.67;44.58;67.41;;
48967;Laerm;46511;53.148;8.204;2024-03-08T08:41:16;55.62;44.51;67.28;;
48967;Laerm;46511;53.148;8.204;2024-03-08T08:43:48;56.77;44.83;71.90;;
48967;Laerm;46511;53.148;8.204;2024-03-08T08:46:20;51.83;44.58;63.98;;
48967;Laerm;46511;53.148;8.204;2024-03-08T08:48:52;56.08;44.73;73.58;;
48967;Laerm;46511;53.148;8.204;2024-03-08T08:51:23;54.99;45.20;64.61;;
48967;Laerm;46511;53.148;8.204;2024-03-08T08:53:59;54.23;44.69;66.83;;
48967;Laerm;46511;53.148;8.204;2024-03-08T08:56:30;60.05;44.69;84.47;;
48967;Laerm;46511;53.148;8.204;2024-03-08T08:59:01;57.05;45.97;83.97;;
48967;Laerm;46511;53.148;8.204;2024-03-08T09:01:34;55.55;45.39;73.57;;
48967;Laerm;46511;53.148;8.204;2024-03-08T09:04:06;53.90;44.15;67.24;;
48967;Laerm;46511;53.148;8.204;2024-03-08T09:06:38;59.20;44.31;68.28;;
48967;Laerm;46511;53.148;8.204;2024-03-08T09:09:12;56.43;43.99;68.01;;
48967;Laerm;46511;53.148;8.204;2024-03-08T09:11:39;54.72;44.65;66.53;;
48967;Laerm;46511;53.148;8.204;2024-03-08T09:14:13;54.01;44.35;64.62;;
48967;Laerm;46511;53.148;8.204;2024-03-08T09:16:45;57.80;46.15;79.61;;
48967;Laerm;46511;53.148;8.204;2024-03-08T09:19:18;52.65;44.16;63.20;;
48967;Laerm;46511;53.148;8.204;2024-03-08T09:21:50;58.64;44.65;70.85;;
48967;Laerm;46511;53.148;8.204;2024-03-08T09:24:18;57.11;44.23;68.18;;
48967;Laerm;46511;53.148;8.204;2024-03-08T09:26:44;55.61;44.31;73.58;;
48967;Laerm;46511;53.148;8.204;2024-03-08T09:29:15;55.72;44.31;67.59;;
48967;Laerm;46511;53.148;8.204;2024-03-08T09:31:42;55.46;44.03;66.91;;
48967;Laerm;46511;53.148;8.204;2024-03-08T09:34:08;56.93;44.43;66.82;;
48967;Laerm;46511;53.148;8.204;2024-03-08T09:36:35;78.41;44.23;99.91;;
48967;Laerm;46511;53.148;8.204;2024-03-08T09:39:01;56.49;44.80;65.68;;
48967;Laerm;46511;53.148;8.204;2024-03-08T09:41:33;54.40;44.27;68.62;;
48967;Laerm;46511;53.148;8.204;2024-03-08T09:44:00;57.81;45.11;69.19;;
48967;Laerm;46511;53.148;8.204;2024-03-08T09:46:32;55.60;45.45;73.45;;
48967;Laerm;46511;53.148;8.204;2024-03-08T09:48:58;56.24;44.27;70.56;;
48967;Laerm;46511;53.148;8.204;2024-03-08T09:51:33;56.92;44.15;67.19;;
48967;Laerm;46511;53.148;8.204;2024-03-08T09:54:06;54.53;45.04;65.38;;
48967;Laerm;46511;53.148;8.204;2024-03-08T09:56:39;56.29;44.35;66.02;;
48967;Laerm;46511;53.148;8.204;2024-03-08T09:59:12;53.88;44.43;65.11;;
48967;Laerm;46511;53.148;8.204;2024-03-08T10:01:54;53.94;43.54;65.94;;
48967;Laerm;46511;53.148;8.204;2024-03-08T10:04:22;56.63;44.51;68.52;;
48967;Laerm;46511;53.148;8.204;2024-03-08T10:06:53;57.47;44.69;68.68;;
48967;Laerm;46511;53.148;8.204;2024-03-08T10:09:20;54.37;44.83;66.40;;
48967;Laerm;46511;53.148;8.204;2024-03-08T10:11:47;55.50;44.76;68.96;;
48967;Laerm;46511;53.148;8.204;2024-03-08T10:14:19;53.64;42.35;65.81;;
48967;Laerm;46511;53.148;8.204;2024-03-08T10:16:52;54.36;44.07;72.06;;
48967;Laerm;46511;53.148;8.204;2024-03-08T10:19:23;54.28;44.19;69.60;;
48967;Laerm;46511;53.148;8.204;2024-03-08T10:21:50;53.07;44.20;63.04;;
48967;Laerm;46511;53.148;8.204;2024-03-08T10:24:19;56.66;43.94;68.30;;
48967;Laerm;46511;53.148;8.204;2024-03-08T10:26:52;54.46;43.72;66.35;;
48967;Laerm;46511;53.148;8.204;2024-03-08T10:29:24;55.67;43.58;66.90;;
48967;Laerm;46511;53.148;8.204;2024-03-08T10:31:50;57.05;43.58;72.80;;
48967;Laerm;46511;53.148;8.204;2024-03-08T10:34:18;59.24;45.27;68.30;;
48967;Laerm;46511;53.148;8.204;2024-03-08T10:36:51;50.18;43.24;60.98;;
48967;Laerm;46511;53.148;8.204;2024-03-08T10:39:24;56.08;44.19;67.08;;
48967;Laerm;46511;53.148;8.204;2024-03-08T10:42:02;53.88;43.49;70.75;;
48967;Laerm;46511;53.148;8.204;2024-03-08T10:44:49;57.01;43.90;69.84;;
48967;Laerm;46511;53.148;8.204;2024-03-08T10:47:26;57.08;45.07;67.53;;
48967;Laerm;46511;53.148;8.204;2024-03-08T10:50:11;56.27;44.15;68.86;;
48967;Laerm;46511;53.148;8.204;2024-03-08T10:52:44;56.24;44.51;68.26;;
48967;Laerm;46511;53.148;8.204;2024-03-08T10:55:15;57.31;45.17;67.60;;
48967;Laerm;46511;53.148;8.204;2024-03-08T10:57:48;57.15;44.07;68.46;;
48967;Laerm;46511;53.148;8.204;2024-03-08T11:00:20;56.67;43.63;66.16;;
48967;Laerm;46511;53.148;8.204;2024-03-08T11:02:57;54.18;43.44;63.64;;
48967;Laerm;46511;53.148;8.204;2024-03-08T11:05:40;54.37;42.76;65.84;;
48967;Laerm;46511;53.148;8.204;2024-03-08T11:10:51;57.43;44.35;74.26;;
48967;Laerm;46511;53.148;8.204;2024-03-08T11:13:37;59.24;44.31;69.21;;
48967;Laerm;46511;53.148;8.204;2024-03-08T11:19:23;55.69;43.81;70.76;;
48967;Laerm;46511;53.148;8.204;2024-03-08T11:21:59;55.74;43.58;67.98;;
48967;Laerm;46511;53.148;8.204;2024-03-08T11:24:38;56.25;44.15;66.64;;
48967;Laerm;46511;53.148;8.204;2024-03-08T11:27:12;58.39;44.20;68.14;;
48967;Laerm;46511;53.148;8.204;2024-03-08T11:29:44;57.78;44.31;75.40;;
48967;Laerm;46511;53.148;8.204;2024-03-08T11:32:11;56.92;43.63;67.73;;
48967;Laerm;46511;53.148;8.204;2024-03-08T11:34:48;56.26;43.72;69.42;;
48967;Laerm;46511;53.148;8.204;2024-03-08T11:37:21;56.18;43.63;69.04;;
48967;Laerm;46511;53.148;8.204;2024-03-08T11:39:52;57.83;45.14;72.14;;
48967;Laerm;46511;53.148;8.204;2024-03-08T11:42:23;56.41;44.83;70.21;;
48967;Laerm;46511;53.148;8.204;2024-03-08T11:44:54;56.36;44.23;66.00;;
48967;Laerm;46511;53.148;8.204;2024-03-08T11:47:21;55.46;43.68;67.06;;
48967;Laerm;46511;53.148;8.204;2024-03-08T11:49:48;58.11;43.90;77.42;;
48967;Laerm;46511;53.148;8.204;2024-03-08T11:52:16;55.63;43.90;66.07;;
48967;Laerm;46511;53.148;8.204;2024-03-08T11:54:51;57.12;43.81;69.07;;
48967;Laerm;46511;53.148;8.204;2024-03-08T11:57:25;55.84;43.39;66.81;;
48967;Laerm;46511;53.148;8.204;2024-03-08T11:59:58;55.91;44.35;73.28;;
48967;Laerm;46511;53.148;8.204;2024-03-08T12:02:37;56.57;43.64;72.81;;
48967;Laerm;46511;53.148;8.204;2024-03-08T12:05:13;58.71;44.35;77.11;;
48967;Laerm;46511;53.148;8.204;2024-03-08T12:07:56;59.78;44.23;78.01;;
48967;Laerm;46511;53.148;8.204;2024-03-08T12:10:23;56.87;44.65;71.78;;
48967;Laerm;46511;53.148;8.204;2024-03-08T12:12:57;57.52;45.75;67.71;;
48967;Laerm;46511;53.148;8.204;2024-03-08T12:15:32;56.81;43.86;68.79;;
48967;Laerm;46511;53.148;8.204;2024-03-08T12:18:05;58.40;44.15;73.68;;
48967;Laerm;46511;53.148;8.204;2024-03-08T12:20:33;56.08;44.27;69.73;;
48967;Laerm;46511;53.148;8.204;2024-03-08T12:22:59;58.33;43.39;69.88;;
48967;Laerm;46511;53.148;8.204;2024-03-08T12:25:32;55.94;43.72;68.51;;
48967;Laerm;46511;53.148;8.204;2024-03-08T12:28:08;55.49;43.39;67.70;;
48967;Laerm;46511;53.148;8.204;2024-03-08T12:30:50;57.97;44.47;69.64;;
48967;Laerm;46511;53.148;8.204;2024-03-08T12:33:24;56.13;43.68;66.76;;
48967;Laerm;46511;53.148;8.204;2024-03-08T12:35:55;54.53;44.15;66.38;;
48967;Laerm;46511;53.148;8.204;2024-03-08T12:38:28;58.37;45.45;69.86;;
48967;Laerm;46511;53.148;8.204;2024-03-08T12:41:00;59.36;47.54;71.48;;
48967;Laerm;46511;53.148;8.204;2024-03-08T12:43:31;56.35;43.09;71.84;;
48967;Laerm;46511;53.148;8.204;2024-03-08T12:46:00;54.31;43.24;68.36;;
48967;Laerm;46511;53.148;8.204;2024-03-08T12:48:26;59.24;44.07;77.24;;
48967;Laerm;46511;53.148;8.204;2024-03-08T12:50:58;57.88;44.47;78.81;;
48967;Laerm;46511;53.148;8.204;2024-03-08T12:53:29;58.51;42.93;74.25;;
48967;Laerm;46511;53.148;8.204;2024-03-08T12:56:00;54.86;43.54;68.95;;
48967;Laerm;46511;53.148;8.204;2024-03-08T12:58:27;57.38;43.86;66.13;;
48967;Laerm;46511;53.148;8.204;2024-03-08T13:00:58;56.89;44.58;69.49;;
48967;Laerm;46511;53.148;8.204;2024-03-08T13:03:30;56.92;44.07;65.39;;
48967;Laerm;46511;53.148;8.204;2024-03-08T13:06:03;55.41;43.24;65.35;;
48967;Laerm;46511;53.148;8.204;2024-03-08T13:08:43;54.69;43.39;64.49;;
48967;Laerm;46511;53.148;8.204;2024-03-08T13:11:10;57.51;43.14;66.74;;
48967;Laerm;46511;53.148;8.204;2024-03-08T13:13:48;56.44;42.76;67.13;;
48967;Laerm;46511;53.148;8.204;2024-03-08T13:16:19;57.36;44.97;74.42;;
48967;Laerm;46511;53.148;8.204;2024-03-08T13:18:51;58.55;45.14;70.62;;
48967;Laerm;46511;53.148;8.204;2024-03-08T13:21:18;57.02;44.11;69.07;;
48967;Laerm;46511;53.148;8.204;2024-03-08T13:23:51;56.93;42.93;74.22;;
48967;Laerm;46511;53.148;8.204;2024-03-08T13:26:24;55.58;43.09;78.87;;
48967;Laerm;46511;53.148;8.204;2024-03-08T13:28:56;57.44;45.91;66.75;;
48967;Laerm;46511;53.148;8.204;2024-03-08T13:31:29;55.68;43.94;67.95;;
48967;Laerm;46511;53.148;8.204;2024-03-08T13:34:00;54.79;44.66;65.24;;
48967;Laerm;46511;53.148;8.204;2024-03-08T13:36:27;57.80;45.14;74.92;;
48967;Laerm;46511;53.148;8.204;2024-03-08T13:39:10;56.37;44.03;64.42;;
48967;Laerm;46511;53.148;8.204;2024-03-08T13:41:47;56.44;43.68;74.86;;
48967;Laerm;46511;53.148;8.204;2024-03-08T13:44:19;56.85;44.58;74.37;;
48967;Laerm;46511;53.148;8.204;2024-03-08T13:46:50;57.31;43.54;66.05;;
48967;Laerm;46511;53.148;8.204;2024-03-08T13:49:23;56.01;42.88;66.42;;
48967;Laerm;46511;53.148;8.204;2024-03-08T13:51:57;55.41;43.72;68.20;;
48967;Laerm;46511;53.148;8.204;2024-03-08T13:54:30;58.25;44.47;69.37;;
48967;Laerm;46511;53.148;8.204;2024-03-08T13:57:02;70.66;47.55;91.68;;
48967;Laerm;46511;53.148;8.204;2024-03-08T13:59:31;58.80;44.27;68.07;;
48967;Laerm;46511;53.148;8.204;2024-03-08T14:02:04;57.39;44.73;69.89;;
48967;Laerm;46511;53.148;8.204;2024-03-08T14:04:36;55.02;43.44;68.91;;
48967;Laerm;46511;53.148;8.204;2024-03-08T14:07:09;55.73;43.72;67.73;;
48967;Laerm;46511;53.148;8.204;2024-03-08T14:09:42;60.34;43.29;75.39;;
48967;Laerm;46511;53.148;8.204;2024-03-08T14:12:09;61.15;46.20;75.35;;
48967;Laerm;46511;53.148;8.204;2024-03-08T14:14:41;59.16;44.35;83.28;;